Aérodrome :
LOGIN :

S'inscrire | Disclaimer

   EN    FR    IT 

 










Légende :    VFR   VFR Marginal   IFR   IFR Intensif   IFR Très Intensif
Visi : 
Plafond : 
>= 8 km
>= 3000ft
5 à 8 km
1000 à 3000 ft
1500m à 5 km
500 à 1000 ft
800 à 1500m
200 à 500 ft
< 800m
< 200 ft
Symboles :   Orages  Brouillard  Fortes neiges  Fortes précipitations  Vent > 20 kt
SIGMETs :   Divers  Orages  Givrage  Turbulence  Onde Orograph.  Cendres Volcan.







- Altitude de l'aérodrome : 290 ft
- Code IATA : LAI
- Voir les cartes d'approche


LFRO - Lannion

DERNIER METAR :
  • 242030Z AUTO 22010KT 9999 OVC007 12/11 Q1015

METARs EXPIRÉS :
  • 242000Z AUTO 22011KT 190V250 9999 OVC008 12/10 Q1015
  • 241930Z AUTO 21011KT 9999 OVC011 12/10 Q1015 BECMG OVC008
  • 241900Z AUTO 21012KT 170V240 9999 OVC012 12/10 Q1015 BECMG OVC008
  • 241830Z AUTO 22011KT 180V240 9999 OVC016 13/10 Q1015 BECMG OVC008
  • 241800Z AUTO 22011KT 190V260 9999 OVC018 13/10 Q1015 BECMG OVC008

TAF TAF LFRO
Valide du 24 à 12h jusqu'au 25 à 12h UTC


241100Z 2412/2512 22012KT 9999 OVC020
BECMG 2418/2421 OVC008
PROB30
TEMPO 2500/2503 4000 -RA OVC003
BECMG 2504/2506 SHRA BKN015
BECMG 2509/2512 27015G25KT
Pas de NOTAMs connus pour ce terrain.



MET'MAP, la Météo Aéronautique d'un coup d'oeil ! - Copyright ORBIFLY Décembre 2007 - Disclaimer

ORBIFLY MET'MAP TEAM :

Programmation & Développement : Alexandra Zaïnal
Conception & Développement : Baudouin d'Aumeries
Co-Programmation & Développement : Marc-Olivier Méhu
Soutien technique & logistique : Manuel Goepfert

Contact : metmap@orbifly.com




SOURCES & CREDITS :

   NOAA